sensor_id;sensor_type;location;lat;lon;timestamp;temperature;humidity
56729;DHT22;42612;52.232;7.560;2023-09-18T00:01:05;24.80;54.60
56729;DHT22;42612;52.232;7.560;2023-09-18T00:03:32;24.70;54.60
56729;DHT22;42612;52.232;7.560;2023-09-18T00:05:58;24.80;54.70
56729;DHT22;42612;52.232;7.560;2023-09-18T00:08:23;24.70;54.70
56729;DHT22;42612;52.232;7.560;2023-09-18T00:10:50;24.70;54.70
56729;DHT22;42612;52.232;7.560;2023-09-18T00:13:20;24.70;54.70
56729;DHT22;42612;52.232;7.560;2023-09-18T00:15:46;24.70;54.70
56729;DHT22;42612;52.232;7.560;2023-09-18T00:18:16;24.70;54.80
56729;DHT22;42612;52.232;7.560;2023-09-18T00:20:42;24.70;54.70
56729;DHT22;42612;52.232;7.560;2023-09-18T00:23:08;24.70;54.80
56729;DHT22;42612;52.232;7.560;2023-09-18T00:25:34;24.70;54.90
56729;DHT22;42612;52.232;7.560;2023-09-18T00:28:00;24.60;54.80
56729;DHT22;42612;52.232;7.560;2023-09-18T00:30:25;24.70;54.90
56729;DHT22;42612;52.232;7.560;2023-09-18T00:32:51;24.60;54.90
56729;DHT22;42612;52.232;7.560;2023-09-18T00:35:17;24.60;54.80
56729;DHT22;42612;52.232;7.560;2023-09-18T00:37:42;24.60;54.90
56729;DHT22;42612;52.232;7.560;2023-09-18T00:40:08;24.70;54.90
56729;DHT22;42612;52.232;7.560;2023-09-18T00:42:34;24.60;54.90
56729;DHT22;42612;52.232;7.560;2023-09-18T00:45:00;24.60;54.90
56729;DHT22;42612;52.232;7.560;2023-09-18T00:47:25;24.60;55.00
56729;DHT22;42612;52.232;7.560;2023-09-18T00:49:51;24.60;55.00
56729;DHT22;42612;52.232;7.560;2023-09-18T00:52:17;24.60;55.00
56729;DHT22;42612;52.232;7.560;2023-09-18T00:54:45;24.60;55.10
56729;DHT22;42612;52.232;7.560;2023-09-18T00:57:11;24.60;55.10
56729;DHT22;42612;52.232;7.560;2023-09-18T00:59:37;24.60;55.10
56729;DHT22;42612;52.232;7.560;2023-09-18T01:02:03;24.60;55.10
56729;DHT22;42612;52.232;7.560;2023-09-18T01:04:29;24.50;55.10
56729;DHT22;42612;52.232;7.560;2023-09-18T01:06:55;24.60;55.20
56729;DHT22;42612;52.232;7.560;2023-09-18T01:09:23;24.60;55.20
56729;DHT22;42612;52.232;7.560;2023-09-18T01:16:56;24.60;55.20
56729;DHT22;42612;52.232;7.560;2023-09-18T01:19:38;24.60;55.30
56729;DHT22;42612;52.232;7.560;2023-09-18T01:22:05;24.60;55.30
56729;DHT22;42612;52.232;7.560;2023-09-18T01:24:32;24.50;55.20
56729;DHT22;42612;52.232;7.560;2023-09-18T01:27:02;24.50;55.30
56729;DHT22;42612;52.232;7.560;2023-09-18T01:29:29;24.50;55.30
56729;DHT22;42612;52.232;7.560;2023-09-18T01:31:55;24.50;55.30
56729;DHT22;42612;52.232;7.560;2023-09-18T01:34:21;24.50;55.40
56729;DHT22;42612;52.232;7.560;2023-09-18T01:36:49;24.50;55.40
56729;DHT22;42612;52.232;7.560;2023-09-18T01:39:15;24.50;55.40
56729;DHT22;42612;52.232;7.560;2023-09-18T01:41:41;24.60;55.50
56729;DHT22;42612;52.232;7.560;2023-09-18T01:44:06;24.60;55.50
56729;DHT22;42612;52.232;7.560;2023-09-18T01:46:32;24.50;55.40
56729;DHT22;42612;52.232;7.560;2023-09-18T01:49:02;24.50;55.40
56729;DHT22;42612;52.232;7.560;2023-09-18T01:51:29;24.50;55.50
56729;DHT22;42612;52.232;7.560;2023-09-18T01:53:55;24.50;55.40
56729;DHT22;42612;52.232;7.560;2023-09-18T01:56:21;24.60;55.80
56729;DHT22;42612;52.232;7.560;2023-09-18T01:58:47;24.50;55.50
56729;DHT22;42612;52.232;7.560;2023-09-18T02:01:13;24.50;55.40
56729;DHT22;42612;52.232;7.560;2023-09-18T02:03:38;24.50;56.20
56729;DHT22;42612;52.232;7.560;2023-09-18T02:06:10;24.50;55.50
56729;DHT22;42612;52.232;7.560;2023-09-18T02:08:35;24.50;55.60
56729;DHT22;42612;52.232;7.560;2023-09-18T02:11:01;24.60;55.50
56729;DHT22;42612;52.232;7.560;2023-09-18T02:13:28;24.60;55.60
56729;DHT22;42612;52.232;7.560;2023-09-18T02:15:54;24.50;55.60
56729;DHT22;42612;52.232;7.560;2023-09-18T02:18:20;24.60;55.60
56729;DHT22;42612;52.232;7.560;2023-09-18T02:20:46;24.50;55.60
56729;DHT22;42612;52.232;7.560;2023-09-18T02:23:14;24.60;55.70
56729;DHT22;42612;52.232;7.560;2023-09-18T02:25:40;24.60;55.60
56729;DHT22;42612;52.232;7.560;2023-09-18T02:28:06;24.60;55.80
56729;DHT22;42612;52.232;7.560;2023-09-18T02:30:32;24.60;55.70
56729;DHT22;42612;52.232;7.560;2023-09-18T02:32:58;24.60;55.70
56729;DHT22;42612;52.232;7.560;2023-09-18T02:35:25;24.60;55.70
56729;DHT22;42612;52.232;7.560;2023-09-18T02:37:50;24.60;55.70
56729;DHT22;42612;52.232;7.560;2023-09-18T02:40:17;24.50;55.60
56729;DHT22;42612;52.232;7.560;2023-09-18T02:42:42;24.50;55.60
56729;DHT22;42612;52.232;7.560;2023-09-18T02:45:08;24.50;55.60
56729;DHT22;42612;52.232;7.560;2023-09-18T02:47:35;24.60;55.70
56729;DHT22;42612;52.232;7.560;2023-09-18T02:50:04;24.60;55.60
56729;DHT22;42612;52.232;7.560;2023-09-18T02:52:30;24.60;55.60
56729;DHT22;42612;52.232;7.560;2023-09-18T02:54:56;24.60;55.60
56729;DHT22;42612;52.232;7.560;2023-09-18T02:57:22;24.50;55.60
56729;DHT22;42612;52.232;7.560;2023-09-18T02:59:47;24.60;55.60
56729;DHT22;42612;52.232;7.560;2023-09-18T03:02:13;24.50;55.60
56729;DHT22;42612;52.232;7.560;2023-09-18T03:04:38;24.60;55.60
56729;DHT22;42612;52.232;7.560;2023-09-18T03:07:04;24.60;55.80
56729;DHT22;42612;52.232;7.560;2023-09-18T03:09:30;24.60;55.70
56729;DHT22;42612;52.232;7.560;2023-09-18T03:11:56;24.50;55.70
56729;DHT22;42612;52.232;7.560;2023-09-18T03:14:21;24.50;55.70
56729;DHT22;42612;52.232;7.560;2023-09-18T03:16:47;24.50;55.70
56729;DHT22;42612;52.232;7.560;2023-09-18T03:19:12;24.50;55.70
56729;DHT22;42612;52.232;7.560;2023-09-18T03:21:38;24.60;55.70
56729;DHT22;42612;52.232;7.560;2023-09-18T03:24:04;24.50;55.70
56729;DHT22;42612;52.232;7.560;2023-09-18T03:26:30;24.50;55.70
56729;DHT22;42612;52.232;7.560;2023-09-18T03:28:55;24.50;55.70
56729;DHT22;42612;52.232;7.560;2023-09-18T03:31:21;24.50;55.70
56729;DHT22;42612;52.232;7.560;2023-09-18T03:33:46;24.50;55.70
56729;DHT22;42612;52.232;7.560;2023-09-18T03:36:12;24.50;55.70
56729;DHT22;42612;52.232;7.560;2023-09-18T03:38:39;24.50;55.70
56729;DHT22;42612;52.232;7.560;2023-09-18T03:41:04;24.60;55.70
56729;DHT22;42612;52.232;7.560;2023-09-18T03:43:30;24.50;55.70
56729;DHT22;42612;52.232;7.560;2023-09-18T03:46:02;24.50;55.70
56729;DHT22;42612;52.232;7.560;2023-09-18T03:48:29;24.50;55.70
56729;DHT22;42612;52.232;7.560;2023-09-18T03:51:00;24.50;55.70
56729;DHT22;42612;52.232;7.560;2023-09-18T03:53:26;24.50;55.70
56729;DHT22;42612;52.232;7.560;2023-09-18T03:55:52;24.50;55.70
56729;DHT22;42612;52.232;7.560;2023-09-18T03:58:17;24.60;55.80
56729;DHT22;42612;52.232;7.560;2023-09-18T04:00:43;24.40;55.70
56729;DHT22;42612;52.232;7.560;2023-09-18T04:03:08;24.50;55.70
56729;DHT22;42612;52.232;7.560;2023-09-18T04:05:34;24.60;55.70
56729;DHT22;42612;52.232;7.560;2023-09-18T04:08:00;24.50;55.70
56729;DHT22;42612;52.232;7.560;2023-09-18T04:10:26;24.50;55.70
56729;DHT22;42612;52.232;7.560;2023-09-18T04:12:51;24.50;55.70
56729;DHT22;42612;52.232;7.560;2023-09-18T04:15:17;24.50;55.70
56729;DHT22;42612;52.232;7.560;2023-09-18T04:17:44;24.50;55.70
56729;DHT22;42612;52.232;7.560;2023-09-18T04:20:10;24.50;55.70
56729;DHT22;42612;52.232;7.560;2023-09-18T04:22:36;24.50;55.70
56729;DHT22;42612;52.232;7.560;2023-09-18T04:25:02;24.60;55.70
56729;DHT22;42612;52.232;7.560;2023-09-18T04:27:30;24.50;56.00
56729;DHT22;42612;52.232;7.560;2023-09-18T04:29:56;24.60;55.80
56729;DHT22;42612;52.232;7.560;2023-09-18T04:32:22;24.50;55.70
56729;DHT22;42612;52.232;7.560;2023-09-18T04:34:48;24.60;55.70
56729;DHT22;42612;52.232;7.560;2023-09-18T04:37:14;24.50;55.80
56729;DHT22;42612;52.232;7.560;2023-09-18T04:39:39;24.50;55.80
56729;DHT22;42612;52.232;7.560;2023-09-18T04:42:05;24.50;55.70
56729;DHT22;42612;52.232;7.560;2023-09-18T04:44:30;24.50;55.70
56729;DHT22;42612;52.232;7.560;2023-09-18T04:46:56;24.50;55.60
56729;DHT22;42612;52.232;7.560;2023-09-18T04:49:23;24.50;55.60
56729;DHT22;42612;52.232;7.560;2023-09-18T04:51:49;24.50;55.70
56729;DHT22;42612;52.232;7.560;2023-09-18T04:54:14;24.50;55.80
56729;DHT22;42612;52.232;7.560;2023-09-18T04:56:41;24.50;55.80
56729;DHT22;42612;52.232;7.560;2023-09-18T04:59:06;24.50;55.80
56729;DHT22;42612;52.232;7.560;2023-09-18T05:01:32;24.50;55.70
56729;DHT22;42612;52.232;7.560;2023-09-18T05:03:57;24.50;55.70
56729;DHT22;42612;52.232;7.560;2023-09-18T05:06:23;24.40;55.70
56729;DHT22;42612;52.232;7.560;2023-09-18T05:08:49;24.50;55.70
56729;DHT22;42612;52.232;7.560;2023-09-18T05:11:15;24.50;55.70
56729;DHT22;42612;52.232;7.560;2023-09-18T05:13:42;24.50;55.70
56729;DHT22;42612;52.232;7.560;2023-09-18T05:16:07;24.50;56.10
56729;DHT22;42612;52.232;7.560;2023-09-18T05:18:33;24.50;56.40
56729;DHT22;42612;52.232;7.560;2023-09-18T05:20:58;24.50;56.10
56729;DHT22;42612;52.232;7.560;2023-09-18T05:23:24;24.60;56.20
56729;DHT22;42612;52.232;7.560;2023-09-18T05:25:49;24.50;56.10
56729;DHT22;42612;52.232;7.560;2023-09-18T05:28:15;24.40;56.10
56729;DHT22;42612;52.232;7.560;2023-09-18T05:30:41;24.50;56.30
56729;DHT22;42612;52.232;7.560;2023-09-18T05:33:06;24.40;56.30
56729;DHT22;42612;52.232;7.560;2023-09-18T05:35:34;24.40;56.60
56729;DHT22;42612;52.232;7.560;2023-09-18T05:38:02;24.50;56.30
56729;DHT22;42612;52.232;7.560;2023-09-18T05:40:31;24.40;56.20
56729;DHT22;42612;52.232;7.560;2023-09-18T05:42:56;24.40;56.30
56729;DHT22;42612;52.232;7.560;2023-09-18T05:45:22;24.40;56.60
56729;DHT22;42612;52.232;7.560;2023-09-18T05:47:48;24.40;56.40
56729;DHT22;42612;52.232;7.560;2023-09-18T05:50:15;24.40;56.40
56729;DHT22;42612;52.232;7.560;2023-09-18T05:52:42;24.40;56.50
56729;DHT22;42612;52.232;7.560;2023-09-18T05:55:08;24.40;56.60
56729;DHT22;42612;52.232;7.560;2023-09-18T05:57:35;24.40;56.70
56729;DHT22;42612;52.232;7.560;2023-09-18T06:00:00;24.40;56.90
56729;DHT22;42612;52.232;7.560;2023-09-18T06:02:26;24.40;56.70
56729;DHT22;42612;52.232;7.560;2023-09-18T06:04:55;24.40;56.80
56729;DHT22;42612;52.232;7.560;2023-09-18T06:07:24;24.30;56.90
56729;DHT22;42612;52.232;7.560;2023-09-18T06:09:50;24.40;56.70
56729;DHT22;42612;52.232;7.560;2023-09-18T06:12:15;24.30;56.90
56729;DHT22;42612;52.232;7.560;2023-09-18T06:14:41;24.30;56.90
56729;DHT22;42612;52.232;7.560;2023-09-18T06:17:07;24.30;56.90
56729;DHT22;42612;52.232;7.560;2023-09-18T06:19:34;24.30;57.00
56729;DHT22;42612;52.232;7.560;2023-09-18T06:22:00;24.30;57.00
56729;DHT22;42612;52.232;7.560;2023-09-18T06:24:26;24.30;57.20
56729;DHT22;42612;52.232;7.560;2023-09-18T06:26:52;24.30;57.20
56729;DHT22;42612;52.232;7.560;2023-09-18T06:29:18;24.30;56.90
56729;DHT22;42612;52.232;7.560;2023-09-18T06:31:44;24.30;57.10
56729;DHT22;42612;52.232;7.560;2023-09-18T06:34:09;24.30;57.40
56729;DHT22;42612;52.232;7.560;2023-09-18T06:36:35;24.20;56.90
56729;DHT22;42612;52.232;7.560;2023-09-18T06:39:01;24.20;57.00
56729;DHT22;42612;52.232;7.560;2023-09-18T06:41:26;24.20;57.20
56729;DHT22;42612;52.232;7.560;2023-09-18T06:43:52;24.30;57.10
56729;DHT22;42612;52.232;7.560;2023-09-18T06:46:17;24.30;57.00
56729;DHT22;42612;52.232;7.560;2023-09-18T06:48:43;24.30;57.20
56729;DHT22;42612;52.232;7.560;2023-09-18T06:51:11;24.30;57.20
56729;DHT22;42612;52.232;7.560;2023-09-18T06:53:38;24.30;57.80
56729;DHT22;42612;52.232;7.560;2023-09-18T06:56:04;24.30;57.30
56729;DHT22;42612;52.232;7.560;2023-09-18T06:58:31;24.20;57.50
56729;DHT22;42612;52.232;7.560;2023-09-18T07:00:56;24.20;57.30
56729;DHT22;42612;52.232;7.560;2023-09-18T07:03:23;24.30;57.30
56729;DHT22;42612;52.232;7.560;2023-09-18T07:05:48;24.30;57.50
56729;DHT22;42612;52.232;7.560;2023-09-18T07:08:14;24.20;57.30
56729;DHT22;42612;52.232;7.560;2023-09-18T07:10:44;24.20;57.50
56729;DHT22;42612;52.232;7.560;2023-09-18T07:13:10;24.30;57.60
56729;DHT22;42612;52.232;7.560;2023-09-18T07:15:37;24.30;57.90
56729;DHT22;42612;52.232;7.560;2023-09-18T07:18:02;24.30;58.50
56729;DHT22;42612;52.232;7.560;2023-09-18T07:20:29;24.20;57.90
56729;DHT22;42612;52.232;7.560;2023-09-18T07:22:55;24.30;58.20
56729;DHT22;42612;52.232;7.560;2023-09-18T07:25:21;24.20;58.40
56729;DHT22;42612;52.232;7.560;2023-09-18T07:27:47;24.20;58.50
56729;DHT22;42612;52.232;7.560;2023-09-18T07:30:13;24.30;58.20
56729;DHT22;42612;52.232;7.560;2023-09-18T07:32:42;24.20;58.30
56729;DHT22;42612;52.232;7.560;2023-09-18T07:35:08;24.30;58.90
56729;DHT22;42612;52.232;7.560;2023-09-18T07:37:38;24.30;59.80
56729;DHT22;42612;52.232;7.560;2023-09-18T07:40:07;24.30;59.20
56729;DHT22;42612;52.232;7.560;2023-09-18T07:42:33;24.30;59.60
56729;DHT22;42612;52.232;7.560;2023-09-18T07:44:59;24.30;59.10
56729;DHT22;42612;52.232;7.560;2023-09-18T07:47:25;24.20;58.70
56729;DHT22;42612;52.232;7.560;2023-09-18T07:49:50;24.30;59.20
56729;DHT22;42612;52.232;7.560;2023-09-18T07:52:16;24.30;59.10
56729;DHT22;42612;52.232;7.560;2023-09-18T07:54:43;24.30;59.10
56729;DHT22;42612;52.232;7.560;2023-09-18T07:57:09;24.30;59.20
56729;DHT22;42612;52.232;7.560;2023-09-18T07:59:35;24.30;58.80
56729;DHT22;42612;52.232;7.560;2023-09-18T08:02:02;24.30;59.10
56729;DHT22;42612;52.232;7.560;2023-09-18T08:04:27;24.40;59.20
56729;DHT22;42612;52.232;7.560;2023-09-18T08:06:56;24.40;59.00
56729;DHT22;42612;52.232;7.560;2023-09-18T08:09:21;24.40;59.60
56729;DHT22;42612;52.232;7.560;2023-09-18T08:11:47;24.40;59.00
56729;DHT22;42612;52.232;7.560;2023-09-18T08:14:15;24.40;60.00
56729;DHT22;42612;52.232;7.560;2023-09-18T08:16:41;24.40;59.70
56729;DHT22;42612;52.232;7.560;2023-09-18T08:19:07;24.40;59.50
56729;DHT22;42612;52.232;7.560;2023-09-18T08:21:32;24.40;59.50
56729;DHT22;42612;52.232;7.560;2023-09-18T08:23:58;24.50;59.20
56729;DHT22;42612;52.232;7.560;2023-09-18T08:26:24;24.50;60.20
56729;DHT22;42612;52.232;7.560;2023-09-18T08:28:50;24.50;59.20
56729;DHT22;42612;52.232;7.560;2023-09-18T08:31:16;24.50;59.70
56729;DHT22;42612;52.232;7.560;2023-09-18T08:33:45;24.60;58.70
56729;DHT22;42612;52.232;7.560;2023-09-18T08:36:10;24.50;58.80
56729;DHT22;42612;52.232;7.560;2023-09-18T08:38:36;24.60;58.90
56729;DHT22;42612;52.232;7.560;2023-09-18T08:41:01;24.60;59.10
56729;DHT22;42612;52.232;7.560;2023-09-18T08:43:29;24.60;58.70
56729;DHT22;42612;52.232;7.560;2023-09-18T08:45:56;24.60;59.20
56729;DHT22;42612;52.232;7.560;2023-09-18T08:48:27;24.60;58.80
56729;DHT22;42612;52.232;7.560;2023-09-18T08:51:04;24.70;58.80
56729;DHT22;42612;52.232;7.560;2023-09-18T08:53:31;24.60;58.50
56729;DHT22;42612;52.232;7.560;2023-09-18T08:55:58;24.70;58.60
56729;DHT22;42612;52.232;7.560;2023-09-18T08:58:27;24.70;58.80
56729;DHT22;42612;52.232;7.560;2023-09-18T09:00:54;24.70;59.30
56729;DHT22;42612;52.232;7.560;2023-09-18T09:03:20;24.70;58.70
56729;DHT22;42612;52.232;7.560;2023-09-18T09:05:45;24.70;58.10
56729;DHT22;42612;52.232;7.560;2023-09-18T09:08:11;24.70;58.30
56729;DHT22;42612;52.232;7.560;2023-09-18T09:10:36;24.70;58.20
56729;DHT22;42612;52.232;7.560;2023-09-18T09:13:03;24.70;58.20
56729;DHT22;42612;52.232;7.560;2023-09-18T09:15:31;24.70;57.90
56729;DHT22;42612;52.232;7.560;2023-09-18T09:18:02;24.70;57.90
56729;DHT22;42612;52.232;7.560;2023-09-18T09:20:29;24.60;57.90
56729;DHT22;42612;52.232;7.560;2023-09-18T09:22:55;24.70;57.90
56729;DHT22;42612;52.232;7.560;2023-09-18T09:25:26;24.60;57.70
56729;DHT22;42612;52.232;7.560;2023-09-18T09:27:54;24.60;57.70
56729;DHT22;42612;52.232;7.560;2023-09-18T09:30:24;24.60;57.70
56729;DHT22;42612;52.232;7.560;2023-09-18T09:32:52;24.70;57.80
56729;DHT22;42612;52.232;7.560;2023-09-18T09:37:58;24.70;57.90
56729;DHT22;42612;52.232;7.560;2023-09-18T09:40:32;24.70;57.90
56729;DHT22;42612;52.232;7.560;2023-09-18T09:42:58;24.80;57.90
56729;DHT22;42612;52.232;7.560;2023-09-18T09:45:30;24.80;57.60
56729;DHT22;42612;52.232;7.560;2023-09-18T09:48:00;24.80;57.50
56729;DHT22;42612;52.232;7.560;2023-09-18T09:50:27;24.80;57.40
56729;DHT22;42612;52.232;7.560;2023-09-18T09:52:54;24.90;57.60
56729;DHT22;42612;52.232;7.560;2023-09-18T09:55:27;24.90;57.60
56729;DHT22;42612;52.232;7.560;2023-09-18T09:58:00;24.90;57.30
56729;DHT22;42612;52.232;7.560;2023-09-18T10:00:39;24.90;57.40
56729;DHT22;42612;52.232;7.560;2023-09-18T10:03:09;24.90;57.20
56729;DHT22;42612;52.232;7.560;2023-09-18T10:05:37;24.90;56.50
56729;DHT22;42612;52.232;7.560;2023-09-18T10:08:06;24.90;56.90
56729;DHT22;42612;52.232;7.560;2023-09-18T10:10:36;24.90;56.90
56729;DHT22;42612;52.232;7.560;2023-09-18T10:13:09;24.90;56.90
56729;DHT22;42612;52.232;7.560;2023-09-18T10:15:36;24.90;56.90
56729;DHT22;42612;52.232;7.560;2023-09-18T10:18:32;24.90;56.80
56729;DHT22;42612;52.232;7.560;2023-09-18T10:21:33;24.90;56.60
56729;DHT22;42612;52.232;7.560;2023-09-18T10:26:25;24.90;56.40
56729;DHT22;42612;52.232;7.560;2023-09-18T10:28:54;24.90;56.50
56729;DHT22;42612;52.232;7.560;2023-09-18T10:31:25;24.90;56.80
56729;DHT22;42612;52.232;7.560;2023-09-18T10:33:51;25.00;56.80
56729;DHT22;42612;52.232;7.560;2023-09-18T10:36:19;25.00;56.80
56729;DHT22;42612;52.232;7.560;2023-09-18T10:38:45;25.00;56.60
56729;DHT22;42612;52.232;7.560;2023-09-18T10:41:21;25.00;56.60
56729;DHT22;42612;52.232;7.560;2023-09-18T10:43:47;25.10;56.10
56729;DHT22;42612;52.232;7.560;2023-09-18T10:46:16;25.10;55.80
56729;DHT22;42612;52.232;7.560;2023-09-18T10:48:42;25.10;56.00
56729;DHT22;42612;52.232;7.560;2023-09-18T10:51:08;25.10;55.80
56729;DHT22;42612;52.232;7.560;2023-09-18T10:53:35;25.10;56.10
56729;DHT22;42612;52.232;7.560;2023-09-18T10:56:01;25.10;55.90
56729;DHT22;42612;52.232;7.560;2023-09-18T10:58:29;25.10;55.20
56729;DHT22;42612;52.232;7.560;2023-09-18T11:00:55;25.10;55.70
56729;DHT22;42612;52.232;7.560;2023-09-18T11:03:23;25.10;55.30
56729;DHT22;42612;52.232;7.560;2023-09-18T11:05:49;25.10;55.80
56729;DHT22;42612;52.232;7.560;2023-09-18T11:11:20;25.20;56.10
56729;DHT22;42612;52.232;7.560;2023-09-18T11:13:46;25.20;56.10
56729;DHT22;42612;52.232;7.560;2023-09-18T11:16:14;25.20;56.10
56729;DHT22;42612;52.232;7.560;2023-09-18T11:18:41;25.20;55.60
56729;DHT22;42612;52.232;7.560;2023-09-18T11:21:07;25.30;55.60
56729;DHT22;42612;52.232;7.560;2023-09-18T11:23:34;25.30;56.10
56729;DHT22;42612;52.232;7.560;2023-09-18T11:26:06;25.40;55.90
56729;DHT22;42612;52.232;7.560;2023-09-18T11:28:32;25.50;55.40
56729;DHT22;42612;52.232;7.560;2023-09-18T11:30:58;25.50;56.00
56729;DHT22;42612;52.232;7.560;2023-09-18T11:36:14;25.70;55.70
56729;DHT22;42612;52.232;7.560;2023-09-18T11:38:56;25.80;55.70
56729;DHT22;42612;52.232;7.560;2023-09-18T11:41:23;25.90;54.20
56729;DHT22;42612;52.232;7.560;2023-09-18T11:46:53;26.00;54.70
56729;DHT22;42612;52.232;7.560;2023-09-18T11:49:20;26.10;53.70
56729;DHT22;42612;52.232;7.560;2023-09-18T11:51:51;26.20;53.80
56729;DHT22;42612;52.232;7.560;2023-09-18T11:54:17;26.20;54.60
56729;DHT22;42612;52.232;7.560;2023-09-18T11:56:43;26.30;54.30
56729;DHT22;42612;52.232;7.560;2023-09-18T11:59:09;26.30;53.70
56729;DHT22;42612;52.232;7.560;2023-09-18T12:01:35;26.40;54.50
56729;DHT22;42612;52.232;7.560;2023-09-18T12:04:04;26.50;54.60
56729;DHT22;42612;52.232;7.560;2023-09-18T12:06:43;26.70;55.20
56729;DHT22;42612;52.232;7.560;2023-09-18T12:09:09;26.80;54.90
56729;DHT22;42612;52.232;7.560;2023-09-18T12:11:38;26.90;51.90
56729;DHT22;42612;52.232;7.560;2023-09-18T12:14:07;27.00;52.10
56729;DHT22;42612;52.232;7.560;2023-09-18T12:16:39;27.10;52.60
56729;DHT22;42612;52.232;7.560;2023-09-18T12:19:04;27.10;51.70
56729;DHT22;42612;52.232;7.560;2023-09-18T12:21:31;27.20;51.70
56729;DHT22;42612;52.232;7.560;2023-09-18T12:23:58;27.20;51.30
56729;DHT22;42612;52.232;7.560;2023-09-18T12:26:24;27.20;53.10
56729;DHT22;42612;52.232;7.560;2023-09-18T12:28:51;27.20;52.50
56729;DHT22;42612;52.232;7.560;2023-09-18T12:31:16;27.20;52.50
56729;DHT22;42612;52.232;7.560;2023-09-18T12:33:42;27.10;50.80
56729;DHT22;42612;52.232;7.560;2023-09-18T12:36:18;27.10;52.40
56729;DHT22;42612;52.232;7.560;2023-09-18T12:38:54;27.20;53.00
56729;DHT22;42612;52.232;7.560;2023-09-18T12:41:20;27.20;53.80
56729;DHT22;42612;52.232;7.560;2023-09-18T12:43:46;27.20;51.80
56729;DHT22;42612;52.232;7.560;2023-09-18T12:46:12;27.30;51.70
56729;DHT22;42612;52.232;7.560;2023-09-18T12:48:38;27.30;51.60
56729;DHT22;42612;52.232;7.560;2023-09-18T12:51:07;27.50;52.10
56729;DHT22;42612;52.232;7.560;2023-09-18T12:53:33;27.50;51.40
56729;DHT22;42612;52.232;7.560;2023-09-18T12:56:09;27.50;49.60
56729;DHT22;42612;52.232;7.560;2023-09-18T12:58:38;27.50;50.70
56729;DHT22;42612;52.232;7.560;2023-09-18T13:01:04;27.60;51.50
56729;DHT22;42612;52.232;7.560;2023-09-18T13:03:34;27.60;50.80
56729;DHT22;42612;52.232;7.560;2023-09-18T13:06:07;27.60;50.60
56729;DHT22;42612;52.232;7.560;2023-09-18T13:08:34;27.60;50.40
56729;DHT22;42612;52.232;7.560;2023-09-18T13:11:01;27.50;50.60
56729;DHT22;42612;52.232;7.560;2023-09-18T13:13:28;27.50;51.00
56729;DHT22;42612;52.232;7.560;2023-09-18T13:15:57;27.50;50.30
56729;DHT22;42612;52.232;7.560;2023-09-18T13:18:25;27.50;50.90
56729;DHT22;42612;52.232;7.560;2023-09-18T13:20:50;27.50;50.70
56729;DHT22;42612;52.232;7.560;2023-09-18T13:23:16;27.50;51.40
56729;DHT22;42612;52.232;7.560;2023-09-18T13:25:43;27.50;51.70
56729;DHT22;42612;52.232;7.560;2023-09-18T13:28:10;27.60;50.60
56729;DHT22;42612;52.232;7.560;2023-09-18T13:30:38;27.70;50.80
56729;DHT22;42612;52.232;7.560;2023-09-18T13:33:08;27.80;51.80
56729;DHT22;42612;52.232;7.560;2023-09-18T13:35:41;27.80;50.50
56729;DHT22;42612;52.232;7.560;2023-09-18T13:38:08;27.90;48.70
56729;DHT22;42612;52.232;7.560;2023-09-18T13:40:36;27.90;49.30
56729;DHT22;42612;52.232;7.560;2023-09-18T13:43:09;27.90;49.70
56729;DHT22;42612;52.232;7.560;2023-09-18T13:45:35;27.80;50.00
56729;DHT22;42612;52.232;7.560;2023-09-18T13:48:04;27.80;49.80
56729;DHT22;42612;52.232;7.560;2023-09-18T13:50:34;27.80;50.70
56729;DHT22;42612;52.232;7.560;2023-09-18T13:53:02;27.80;50.70
56729;DHT22;42612;52.232;7.560;2023-09-18T13:55:29;27.80;50.80
56729;DHT22;42612;52.232;7.560;2023-09-18T13:57:55;27.90;51.20
56729;DHT22;42612;52.232;7.560;2023-09-18T14:00:21;28.00;49.90
56729;DHT22;42612;52.232;7.560;2023-09-18T14:02:47;28.00;50.60
56729;DHT22;42612;52.232;7.560;2023-09-18T14:05:13;28.00;48.60
56729;DHT22;42612;52.232;7.560;2023-09-18T14:07:38;28.00;50.50
56729;DHT22;42612;52.232;7.560;2023-09-18T14:10:07;28.00;49.10
56729;DHT22;42612;52.232;7.560;2023-09-18T14:12:35;28.00;48.70
56729;DHT22;42612;52.232;7.560;2023-09-18T14:15:07;28.00;50.30
56729;DHT22;42612;52.232;7.560;2023-09-18T14:17:34;28.00;49.50
56729;DHT22;42612;52.232;7.560;2023-09-18T14:19:59;28.10;50.20
56729;DHT22;42612;52.232;7.560;2023-09-18T14:22:25;28.10;50.30
56729;DHT22;42612;52.232;7.560;2023-09-18T14:24:51;28.20;50.10
56729;DHT22;42612;52.232;7.560;2023-09-18T14:27:17;28.20;49.70
56729;DHT22;42612;52.232;7.560;2023-09-18T14:29:42;28.20;48.50
56729;DHT22;42612;52.232;7.560;2023-09-18T14:32:08;28.20;49.40
56729;DHT22;42612;52.232;7.560;2023-09-18T14:34:34;28.20;48.70
56729;DHT22;42612;52.232;7.560;2023-09-18T14:37:03;28.20;48.90
56729;DHT22;42612;52.232;7.560;2023-09-18T14:39:32;28.20;48.60
56729;DHT22;42612;52.232;7.560;2023-09-18T14:41:58;28.20;49.10
56729;DHT22;42612;52.232;7.560;2023-09-18T14:44:25;28.10;49.40
56729;DHT22;42612;52.232;7.560;2023-09-18T14:46:53;28.10;49.50
56729;DHT22;42612;52.232;7.560;2023-09-18T14:49:19;28.00;49.20
56729;DHT22;42612;52.232;7.560;2023-09-18T14:51:44;28.00;48.80
56729;DHT22;42612;52.232;7.560;2023-09-18T14:54:10;28.00;49.40
56729;DHT22;42612;52.232;7.560;2023-09-18T14:56:36;27.90;45.50
56729;DHT22;42612;52.232;7.560;2023-09-18T14:59:02;27.90;47.60
56729;DHT22;42612;52.232;7.560;2023-09-18T15:01:28;27.90;45.40
56729;DHT22;42612;52.232;7.560;2023-09-18T15:03:54;27.90;46.90
56729;DHT22;42612;52.232;7.560;2023-09-18T15:06:20;27.90;46.90
56729;DHT22;42612;52.232;7.560;2023-09-18T15:08:46;27.90;49.00
56729;DHT22;42612;52.232;7.560;2023-09-18T15:11:12;27.90;47.50
56729;DHT22;42612;52.232;7.560;2023-09-18T15:13:38;27.80;45.70
56729;DHT22;42612;52.232;7.560;2023-09-18T15:16:04;27.80;47.60
56729;DHT22;42612;52.232;7.560;2023-09-18T15:18:30;27.70;47.30
56729;DHT22;42612;52.232;7.560;2023-09-18T15:20:56;27.70;47.10
56729;DHT22;42612;52.232;7.560;2023-09-18T15:23:22;27.70;48.00
56729;DHT22;42612;52.232;7.560;2023-09-18T15:25:51;27.70;46.90
56729;DHT22;42612;52.232;7.560;2023-09-18T15:28:19;27.80;47.50
56729;DHT22;42612;52.232;7.560;2023-09-18T15:30:45;27.90;47.20
56729;DHT22;42612;52.232;7.560;2023-09-18T15:33:11;27.90;47.50
56729;DHT22;42612;52.232;7.560;2023-09-18T15:35:38;28.00;46.30
56729;DHT22;42612;52.232;7.560;2023-09-18T15:38:03;27.90;48.40
56729;DHT22;42612;52.232;7.560;2023-09-18T15:40:29;28.00;46.80
56729;DHT22;42612;52.232;7.560;2023-09-18T15:42:55;28.10;45.10
56729;DHT22;42612;52.232;7.560;2023-09-18T15:45:22;28.10;46.00
56729;DHT22;42612;52.232;7.560;2023-09-18T15:47:47;28.10;47.60